Time;durP1;ratioP1;P1;durP2;ratioP2;P2;SDS_P1;SDS_P2;PMS_P1;PMS_P2;Temp;Humidity;BMP_temperature;BMP_pressure;BME280_temperature;BME280_humidity;BME280_pressure;Samples;Min_cycle;Max_cycle;Signal;HPM_P1;HPM_P2
2023/05/19 00:01:07;;;;;;;0.10;0.10;;;12.20;99.90;;;;;;5133545;28;20034;-69
2023/05/19 00:03:39;;;;;;;0.10;0.10;;;12.20;99.90;;;;;;5133384;28;20019;-68
2023/05/19 00:06:09;;;;;;;0.10;0.10;;;12.20;99.90;;;;;;5124312;28;20070;-69
2023/05/19 00:08:37;;;;;;;0.10;0.10;;;12.30;99.90;;;;;;5133272;28;20031;-69
2023/05/19 00:11:03;;;;;;;0.10;0.10;;;12.30;99.90;;;;;;5134115;27;20069;-69
2023/05/19 00:13:30;;;;;;;0.10;0.10;;;12.40;99.90;;;;;;5124328;27;20027;-69
2023/05/19 00:15:55;;;;;;;0.00;0.00;;;12.30;99.90;;;;;;5125609;27;20030;-69
2023/05/19 00:18:22;;;;;;;0.10;0.10;;;12.30;99.90;;;;;;5137636;27;20019;-70
2023/05/19 00:20:48;;;;;;;0.15;0.15;;;12.50;99.90;;;;;;5137579;27;20102;-69
2023/05/19 00:23:14;;;;;;;0.10;0.10;;;12.70;99.90;;;;;;5125221;27;20042;-68
2023/05/19 00:25:39;;;;;;;0.03;0.03;;;12.60;99.90;;;;;;5135212;27;20027;-69
2023/05/19 00:28:05;;;;;;;0.10;0.10;;;12.70;99.90;;;;;;5137084;27;20141;-69
2023/05/19 00:30:31;;;;;;;0.10;0.10;;;12.80;99.90;;;;;;5137329;27;20391;-69
2023/05/19 00:32:57;;;;;;;0.10;0.10;;;12.60;99.90;;;;;;5118970;27;20110;-68
2023/05/19 00:35:23;;;;;;;0.30;0.30;;;12.60;99.90;;;;;;5137235;27;20419;-69
2023/05/19 00:37:49;;;;;;;0.00;0.00;;;12.60;99.90;;;;;;5118866;27;20019;-69
2023/05/19 00:40:15;;;;;;;0.10;0.10;;;12.70;99.90;;;;;;5106738;28;20024;-69
2023/05/19 00:42:41;;;;;;;0.10;0.10;;;12.80;99.90;;;;;;5115933;27;20176;-69
2023/05/19 00:45:07;;;;;;;0.38;0.38;;;12.80;99.90;;;;;;5137294;27;20027;-68
2023/05/19 00:47:33;;;;;;;1.10;1.05;;;12.70;99.90;;;;;;5137054;27;20041;-68
2023/05/19 00:49:59;;;;;;;0.10;0.10;;;12.60;99.90;;;;;;5118626;27;20083;-69
2023/05/19 00:52:26;;;;;;;0.10;0.10;;;12.60;99.90;;;;;;5118451;27;20031;-68
2023/05/19 00:54:52;;;;;;;4.05;2.60;;;12.60;99.90;;;;;;5118501;27;20016;-68
2023/05/19 00:57:19;;;;;;;0.05;0.05;;;12.60;99.90;;;;;;5136636;27;20030;-70
2023/05/19 00:59:47;;;;;;;0.10;0.10;;;12.70;99.90;;;;;;5118246;27;20420;-69
2023/05/19 01:02:13;;;;;;;0.10;0.10;;;12.70;99.90;;;;;;5136817;27;20042;-69
2023/05/19 01:04:40;;;;;;;0.10;0.10;;;12.60;99.90;;;;;;5136531;27;20030;-69
2023/05/19 01:07:06;;;;;;;0.10;0.10;;;12.60;99.90;;;;;;5136738;27;20042;-69
2023/05/19 01:09:33;;;;;;;0.30;0.30;;;12.70;99.90;;;;;;5136337;27;20027;-69
2023/05/19 01:12:00;;;;;;;0.03;0.03;;;12.70;99.90;;;;;;5136473;27;20353;-70
2023/05/19 01:14:27;;;;;;;0.10;0.10;;;12.50;99.90;;;;;;5105694;28;20023;-70
2023/05/19 01:17:27;;;;;;;0.10;0.10;;;12.50;99.90;;;;;;5116131;27;20015;-70
2023/05/19 01:20:05;;;;;;;0.10;0.10;;;12.40;99.90;;;;;;5136434;27;20042;-70
2023/05/19 01:22:41;;;;;;;0.10;0.10;;;12.50;99.90;;;;;;5135931;27;20031;-69
2023/05/19 01:25:22;;;;;;;0.10;0.10;;;12.50;99.90;;;;;;5136380;27;20375;-71
2023/05/19 01:28:13;;;;;;;0.50;0.50;;;12.40;99.90;;;;;;5117462;27;20042;-72
2023/05/19 01:30:43;;;;;;;0.20;0.20;;;12.40;99.90;;;;;;5117828;27;20474;-69
2023/05/19 01:33:14;;;;;;;0.00;0.00;;;12.20;99.90;;;;;;5136788;27;20031;-69
2023/05/19 01:35:41;;;;;;;0.10;0.10;;;12.30;99.90;;;;;;5136465;27;20047;-69
2023/05/19 01:38:09;;;;;;;0.00;0.00;;;12.30;99.90;;;;;;5136149;27;20037;-71
2023/05/19 01:40:36;;;;;;;3.00;2.17;;;12.10;99.90;;;;;;5116840;27;20027;-68
2023/05/19 01:43:03;;;;;;;0.10;0.10;;;11.80;99.90;;;;;;5136089;27;20066;-69
2023/05/19 01:45:31;;;;;;;0.10;0.10;;;11.90;99.90;;;;;;5136129;27;20022;-71
2023/05/19 01:48:00;;;;;;;0.10;0.10;;;11.90;99.90;;;;;;5136108;27;20027;-73
2023/05/19 01:50:26;;;;;;;0.10;0.10;;;11.90;99.90;;;;;;5117169;27;20459;-73
2023/05/19 01:52:54;;;;;;;0.10;0.10;;;11.90;99.90;;;;;;5135932;27;20029;-75
2023/05/19 01:55:22;;;;;;;0.10;0.10;;;11.90;99.90;;;;;;5117022;27;20130;-72
2023/05/19 01:58:26;;;;;;;0.10;0.10;;;11.90;99.90;;;;;;5117341;27;20026;-74
2023/05/19 02:01:24;;;;;;;0.10;0.10;;;12.00;99.90;;;;;;5113563;27;20436;-73
2023/05/19 02:04:24;;;;;;;0.00;0.00;;;11.80;99.90;;;;;;5135835;27;20023;-72
2023/05/19 02:07:04;;;;;;;0.10;0.10;;;11.80;99.90;;;;;;5124289;27;20051;-74
2023/05/19 02:09:43;;;;;;;0.10;0.10;;;11.70;99.90;;;;;;5116694;27;20015;-72
2023/05/19 02:12:10;;;;;;;0.57;0.57;;;11.80;99.90;;;;;;5135747;27;20076;-71
2023/05/19 02:14:45;;;;;;;0.10;0.10;;;11.70;99.90;;;;;;5121688;27;20411;-74
2023/05/19 02:17:14;;;;;;;1.45;0.85;;;11.60;99.90;;;;;;5121345;27;20033;-72
2023/05/19 02:19:41;;;;;;;0.10;0.10;;;11.70;99.90;;;;;;5116902;27;20068;-75
2023/05/19 02:22:07;;;;;;;0.10;0.10;;;11.60;99.90;;;;;;5135174;27;20027;-73
2023/05/19 02:24:33;;;;;;;0.57;0.47;;;11.50;99.90;;;;;;5134982;27;20026;-72
2023/05/19 02:26:59;;;;;;;0.20;0.20;;;11.60;99.90;;;;;;5116318;27;20051;-73
2023/05/19 02:29:25;;;;;;;0.10;0.10;;;11.40;99.90;;;;;;5135118;27;20027;-72
2023/05/19 02:31:51;;;;;;;0.10;0.10;;;11.50;99.90;;;;;;5116925;27;20390;-69
2023/05/19 02:34:17;;;;;;;2.05;1.88;;;11.60;99.90;;;;;;5134222;27;20114;-69
2023/05/19 02:36:43;;;;;;;0.10;0.10;;;11.60;99.90;;;;;;5134890;27;20110;-69
2023/05/19 02:39:10;;;;;;;0.10;0.10;;;11.70;99.90;;;;;;5134589;27;20015;-69
2023/05/19 02:41:37;;;;;;;0.00;0.00;;;11.60;99.90;;;;;;5116257;27;20511;-68
2023/05/19 02:44:03;;;;;;;0.85;0.52;;;11.50;99.90;;;;;;5134868;27;20059;-69
2023/05/19 02:46:29;;;;;;;0.20;0.20;;;11.30;99.90;;;;;;5116190;27;20023;-69
2023/05/19 02:48:55;;;;;;;0.45;0.45;;;11.20;99.90;;;;;;5134730;27;20030;-69
2023/05/19 02:51:21;;;;;;;0.10;0.10;;;11.30;99.90;;;;;;5116257;27;20030;-69
2023/05/19 02:53:47;;;;;;;0.10;0.10;;;11.30;99.90;;;;;;5116081;27;20082;-69
2023/05/19 02:56:12;;;;;;;0.10;0.10;;;11.30;99.90;;;;;;5134512;27;20048;-68
2023/05/19 02:58:38;;;;;;;0.15;0.15;;;11.10;99.90;;;;;;5116037;27;20215;-68
2023/05/19 03:01:04;;;;;;;0.10;0.10;;;11.20;99.90;;;;;;5115929;27;20041;-69
2023/05/19 03:03:30;;;;;;;0.10;0.10;;;11.40;99.90;;;;;;5115843;27;20027;-68
2023/05/19 03:05:56;;;;;;;0.10;0.10;;;11.40;99.90;;;;;;5116120;27;20106;-69
2023/05/19 03:08:21;;;;;;;0.08;0.08;;;11.20;99.90;;;;;;5133974;27;20042;-69
2023/05/19 03:10:47;;;;;;;0.10;0.10;;;11.10;99.90;;;;;;5134662;27;20034;-68
2023/05/19 03:13:13;;;;;;;0.10;0.10;;;11.20;99.90;;;;;;5113632;27;20042;-68
2023/05/19 03:15:39;;;;;;;0.10;0.10;;;11.20;99.90;;;;;;5121958;27;20027;-68
2023/05/19 03:18:05;;;;;;;0.13;0.13;;;11.10;99.90;;;;;;5115708;28;20026;-69
2023/05/19 03:20:32;;;;;;;0.10;0.10;;;11.10;99.90;;;;;;5116078;27;20050;-68
2023/05/19 03:22:58;;;;;;;0.20;0.20;;;11.20;99.90;;;;;;5115620;27;20073;-69
2023/05/19 03:25:23;;;;;;;0.35;0.35;;;11.00;99.90;;;;;;5115430;27;20058;-70
2023/05/19 03:27:49;;;;;;;0.10;0.10;;;10.80;99.90;;;;;;5133844;27;20043;-68
2023/05/19 03:30:15;;;;;;;0.10;0.10;;;10.80;99.90;;;;;;5115562;27;20019;-68
2023/05/19 03:32:55;;;;;;;0.15;0.15;;;10.80;99.90;;;;;;5115894;27;20027;-70
2023/05/19 03:35:21;;;;;;;0.10;0.10;;;10.80;99.90;;;;;;5098558;27;20027;-69
2023/05/19 03:37:47;;;;;;;0.45;0.38;;;10.90;99.90;;;;;;5115110;27;20134;-68
2023/05/19 03:40:13;;;;;;;0.40;0.40;;;10.80;99.90;;;;;;5115349;28;20122;-69
2023/05/19 03:42:41;;;;;;;0.10;0.10;;;10.80;99.90;;;;;;5115282;28;20022;-69
2023/05/19 03:45:07;;;;;;;0.10;0.10;;;10.80;99.90;;;;;;5133466;27;20390;-70
2023/05/19 03:47:33;;;;;;;0.10;0.10;;;10.90;99.90;;;;;;5115020;27;20386;-69
2023/05/19 03:50:10;;;;;;;0.20;0.20;;;10.90;99.90;;;;;;5115049;28;20023;-69
2023/05/19 03:52:50;;;;;;;0.10;0.10;;;10.80;99.90;;;;;;5114755;28;20031;-71
2023/05/19 03:55:28;;;;;;;0.45;0.30;;;10.80;99.90;;;;;;5115077;28;20058;-68
2023/05/19 03:57:55;;;;;;;0.20;0.20;;;10.70;99.90;;;;;;5114982;28;20023;-69
2023/05/19 04:00:21;;;;;;;0.20;0.20;;;10.80;99.90;;;;;;5115286;28;20027;-69
2023/05/19 04:02:50;;;;;;;0.10;0.10;;;10.70;99.90;;;;;;5115012;28;20015;-73
2023/05/19 04:05:15;;;;;;;0.10;0.10;;;10.60;99.90;;;;;;5133238;28;20476;-73
2023/05/19 04:07:41;;;;;;;0.55;0.55;;;10.80;99.90;;;;;;5133347;28;20177;-73
2023/05/19 04:10:08;;;;;;;0.10;0.10;;;10.80;99.90;;;;;;5133368;28;20020;-74
2023/05/19 04:12:33;;;;;;;0.10;0.10;;;10.80;99.90;;;;;;5133469;28;20076;-72
2023/05/19 04:14:59;;;;;;;0.10;0.10;;;10.90;99.90;;;;;;5100763;28;20440;-73
2023/05/19 04:17:26;;;;;;;0.10;0.10;;;10.70;99.90;;;;;;5114958;28;20092;-73
2023/05/19 04:19:54;;;;;;;0.10;0.10;;;10.70;99.90;;;;;;5114305;28;20043;-70
2023/05/19 04:22:21;;;;;;;0.10;0.10;;;10.80;99.90;;;;;;5115167;28;20023;-72
2023/05/19 04:24:47;;;;;;;0.10;0.10;;;10.90;99.90;;;;;;5114938;28;20468;-74
2023/05/19 04:27:14;;;;;;;0.10;0.10;;;10.80;99.90;;;;;;5114889;28;20541;-73
2023/05/19 04:29:40;;;;;;;0.10;0.10;;;10.90;99.90;;;;;;5114961;28;20034;-74
2023/05/19 04:32:07;;;;;;;0.10;0.10;;;11.00;99.90;;;;;;5114920;28;20020;-73
2023/05/19 04:34:34;;;;;;;0.10;0.10;;;11.00;99.90;;;;;;5114462;28;20022;-74
2023/05/19 04:37:01;;;;;;;0.40;0.40;;;11.10;99.90;;;;;;5114979;28;20400;-73
2023/05/19 04:39:28;;;;;;;0.13;0.13;;;11.10;99.90;;;;;;5114728;28;20030;-74
2023/05/19 04:41:55;;;;;;;0.32;0.32;;;11.00;99.90;;;;;;5098041;28;20035;-74
2023/05/19 04:44:22;;;;;;;0.10;0.10;;;11.00;99.90;;;;;;5114638;28;20034;-73
2023/05/19 04:46:52;;;;;;;0.35;0.35;;;11.00;99.90;;;;;;5114775;28;20027;-74
2023/05/19 04:49:19;;;;;;;3.00;2.72;;;11.00;99.90;;;;;;5114226;28;20498;-74
2023/05/19 04:51:48;;;;;;;0.13;0.13;;;11.00;99.90;;;;;;5133280;28;20072;-72
2023/05/19 04:54:16;;;;;;;0.93;0.93;;;11.20;99.90;;;;;;5114837;28;20394;-73
2023/05/19 04:56:43;;;;;;;0.10;0.10;;;11.10;99.90;;;;;;5099377;27;20531;-73
2023/05/19 04:59:09;;;;;;;0.40;0.40;;;11.20;99.90;;;;;;5136892;27;20098;-74
2023/05/19 05:01:39;;;;;;;0.10;0.10;;;11.20;99.90;;;;;;5118313;27;20049;-75
2023/05/19 05:04:06;;;;;;;0.10;0.10;;;11.30;99.90;;;;;;5118039;27;20019;-73
2023/05/19 05:06:32;;;;;;;0.10;0.10;;;11.40;99.90;;;;;;5118238;27;20041;-73
2023/05/19 05:08:58;;;;;;;0.10;0.10;;;11.40;99.90;;;;;;5118481;27;20031;-73
2023/05/19 05:11:25;;;;;;;0.10;0.10;;;11.60;99.90;;;;;;5100945;27;20047;-75
2023/05/19 05:13:52;;;;;;;0.15;0.15;;;11.70;99.90;;;;;;5110665;28;20032;-73
2023/05/19 05:16:18;;;;;;;0.10;0.10;;;11.70;99.90;;;;;;5129625;27;20060;-74
2023/05/19 05:18:45;;;;;;;0.10;0.10;;;12.00;99.90;;;;;;5136188;27;20031;-71
2023/05/19 05:21:12;;;;;;;0.10;0.10;;;12.10;99.90;;;;;;5118284;27;20015;-75
2023/05/19 05:23:39;;;;;;;1.25;0.57;;;11.90;99.90;;;;;;5118012;27;20027;-69
2023/05/19 05:26:14;;;;;;;0.13;0.13;;;12.00;99.90;;;;;;5118127;27;20134;-68
2023/05/19 05:28:40;;;;;;;0.80;0.30;;;12.10;99.90;;;;;;5118002;27;20038;-69
2023/05/19 05:31:06;;;;;;;0.20;0.20;;;11.80;99.90;;;;;;5118033;27;20019;-69
2023/05/19 05:33:32;;;;;;;0.25;0.25;;;12.00;99.90;;;;;;5117453;27;20028;-69
2023/05/19 05:35:58;;;;;;;0.10;0.10;;;12.10;99.90;;;;;;5136316;27;20038;-69
2023/05/19 05:38:25;;;;;;;1.27;0.45;;;12.40;99.90;;;;;;5117714;27;20387;-70
2023/05/19 05:40:51;;;;;;;0.10;0.10;;;12.30;99.90;;;;;;5135631;27;20025;-69
2023/05/19 05:43:17;;;;;;;0.30;0.30;;;12.20;99.90;;;;;;5117771;27;20027;-68
2023/05/19 05:45:48;;;;;;;0.47;0.47;;;12.20;99.90;;;;;;5117337;27;20483;-69
2023/05/19 05:48:14;;;;;;;0.10;0.10;;;12.00;99.90;;;;;;5117203;27;20035;-68
2023/05/19 05:50:43;;;;;;;0.10;0.10;;;12.10;99.90;;;;;;5117147;27;20030;-69
2023/05/19 05:53:18;;;;;;;0.20;0.20;;;12.40;99.90;;;;;;5117470;27;20429;-69
2023/05/19 05:55:48;;;;;;;0.50;0.50;;;12.40;99.90;;;;;;5117170;27;20034;-70
2023/05/19 05:58:15;;;;;;;0.10;0.10;;;12.30;99.90;;;;;;5117410;27;20039;-69
2023/05/19 06:00:42;;;;;;;1.27;1.17;;;12.40;99.90;;;;;;5116824;27;20031;-69
2023/05/19 06:03:09;;;;;;;0.57;0.40;;;12.60;99.90;;;;;;5117031;27;20048;-69
2023/05/19 06:05:36;;;;;;;0.28;0.28;;;12.70;99.90;;;;;;5117244;27;20420;-68
2023/05/19 06:08:02;;;;;;;0.13;0.13;;;12.70;99.90;;;;;;5116765;27;20023;-69
2023/05/19 06:10:28;;;;;;;0.17;0.17;;;12.80;99.90;;;;;;5100235;27;20019;-69
2023/05/19 06:12:55;;;;;;;0.10;0.10;;;12.90;99.90;;;;;;5117095;27;20043;-70
2023/05/19 06:15:21;;;;;;;0.20;0.20;;;12.90;99.90;;;;;;5102631;27;20518;-69
2023/05/19 06:18:16;;;;;;;0.22;0.22;;;12.80;99.90;;;;;;5116750;27;20072;-69
2023/05/19 06:20:42;;;;;;;0.10;0.10;;;12.90;99.90;;;;;;5135385;27;20038;-69
2023/05/19 06:23:08;;;;;;;0.32;0.32;;;13.20;99.90;;;;;;5116993;27;20106;-75
2023/05/19 06:25:35;;;;;;;0.77;0.77;;;12.90;99.90;;;;;;5116702;27;20406;-75
2023/05/19 06:28:01;;;;;;;0.13;0.13;;;13.20;99.90;;;;;;5116578;27;20129;-74
2023/05/19 06:30:27;;;;;;;0.10;0.10;;;13.40;99.90;;;;;;5116689;27;20076;-75
2023/05/19 06:33:03;;;;;;;1.00;0.30;;;13.50;99.90;;;;;;5116517;27;20394;-73
2023/05/19 06:35:30;;;;;;;0.10;0.10;;;13.40;99.90;;;;;;5116675;27;20024;-74
2023/05/19 06:37:56;;;;;;;0.30;0.30;;;13.80;99.90;;;;;;5116344;27;20019;-75
2023/05/19 06:40:22;;;;;;;0.80;0.75;;;13.70;99.90;;;;;;5116303;27;20023;-72
2023/05/19 06:42:48;;;;;;;0.10;0.10;;;13.60;99.90;;;;;;5116277;27;20114;-75
2023/05/19 06:45:21;;;;;;;0.50;0.50;;;13.60;99.90;;;;;;5099809;27;20481;-75
2023/05/19 06:47:49;;;;;;;2.05;1.95;;;13.50;99.90;;;;;;5116171;27;20048;-74
2023/05/19 06:50:15;;;;;;;0.00;0.00;;;13.60;99.90;;;;;;5116482;27;20023;-74
2023/05/19 06:52:43;;;;;;;0.10;0.10;;;13.70;99.90;;;;;;5134329;27;20034;-75
2023/05/19 06:55:09;;;;;;;1.10;0.95;;;14.00;99.90;;;;;;5116274;27;20098;-75
2023/05/19 06:57:37;;;;;;;0.10;0.10;;;14.20;99.90;;;;;;5115906;27;20062;-74
2023/05/19 07:00:05;;;;;;;0.57;0.57;;;14.10;99.90;;;;;;5116074;27;20049;-73
2023/05/19 07:02:31;;;;;;;0.10;0.10;;;13.70;99.90;;;;;;5115639;27;20117;-75
2023/05/19 07:04:57;;;;;;;0.20;0.20;;;13.80;99.90;;;;;;5134544;27;20102;-75
2023/05/19 07:07:23;;;;;;;0.05;0.05;;;14.10;99.90;;;;;;5115839;27;20498;-73
2023/05/19 07:09:50;;;;;;;0.20;0.20;;;14.30;99.90;;;;;;5098923;27;20027;-73
2023/05/19 07:12:17;;;;;;;1.15;1.05;;;13.90;99.90;;;;;;5134335;27;20027;-74
2023/05/19 07:14:43;;;;;;;0.10;0.10;;;13.70;99.90;;;;;;5100880;28;20057;-73
2023/05/19 07:17:10;;;;;;;0.08;0.08;;;14.00;99.90;;;;;;5115762;27;20118;-74
2023/05/19 07:19:40;;;;;;;0.10;0.10;;;14.20;99.90;;;;;;5115545;27;20027;-74
2023/05/19 07:22:06;;;;;;;0.10;0.10;;;14.50;99.90;;;;;;5115771;27;20027;-75
2023/05/19 07:24:31;;;;;;;0.10;0.10;;;14.60;99.90;;;;;;5134157;27;20050;-73
2023/05/19 07:26:57;;;;;;;4.43;0.85;;;14.90;99.90;;;;;;5133585;27;20023;-75
2023/05/19 07:29:23;;;;;;;0.70;0.70;;;15.00;99.90;;;;;;5133926;27;20023;-74
2023/05/19 07:31:52;;;;;;;0.20;0.20;;;14.60;99.90;;;;;;5133949;27;20479;-75
2023/05/19 07:34:19;;;;;;;0.73;0.73;;;14.40;99.90;;;;;;5133859;27;20421;-75
2023/05/19 07:36:45;;;;;;;7.18;1.27;;;14.80;99.90;;;;;;5133880;27;20376;-75
2023/05/19 07:39:11;;;;;;;1.45;1.35;;;14.90;99.90;;;;;;5133752;27;20038;-74
2023/05/19 07:41:37;;;;;;;0.63;0.63;;;14.50;99.90;;;;;;5133972;27;20117;-74
2023/05/19 07:44:06;;;;;;;6.68;1.27;;;14.70;99.90;;;;;;5133537;27;20064;-74
2023/05/19 07:46:36;;;;;;;0.32;0.20;;;14.70;99.90;;;;;;5133962;28;20062;-74
2023/05/19 07:49:02;;;;;;;0.35;0.30;;;15.10;99.90;;;;;;5133620;27;20043;-75
2023/05/19 07:51:28;;;;;;;0.10;0.10;;;15.30;99.90;;;;;;5133809;27;20023;-74
2023/05/19 07:53:54;;;;;;;0.00;0.00;;;15.60;99.90;;;;;;5115295;28;20041;-74
2023/05/19 07:56:20;;;;;;;0.22;0.22;;;15.60;99.90;;;;;;5133531;28;20023;-74
2023/05/19 07:58:46;;;;;;;0.05;0.05;;;15.80;99.90;;;;;;5133537;28;20019;-75
2023/05/19 08:01:12;;;;;;;0.88;0.63;;;16.00;99.90;;;;;;5133837;28;20058;-75
2023/05/19 08:03:37;;;;;;;0.40;0.32;;;15.80;99.90;;;;;;5133518;28;20024;-73
2023/05/19 08:06:03;;;;;;;0.90;0.90;;;15.40;99.90;;;;;;5133713;28;20487;-75
2023/05/19 08:08:29;;;;;;;0.38;0.38;;;15.20;99.90;;;;;;5133323;28;20031;-73
2023/05/19 08:10:55;;;;;;;0.70;0.63;;;15.50;99.90;;;;;;5133606;28;20020;-73
2023/05/19 08:13:21;;;;;;;0.00;0.00;;;15.40;99.90;;;;;;5130354;28;20046;-73
2023/05/19 08:15:46;;;;;;;0.00;0.00;;;15.70;99.90;;;;;;5086979;28;20509;-75
2023/05/19 08:18:12;;;;;;;1.20;1.02;;;15.80;99.90;;;;;;5133275;28;20019;-75
2023/05/19 08:20:38;;;;;;;0.15;0.15;;;15.60;99.90;;;;;;5133268;28;20034;-74
2023/05/19 08:23:04;;;;;;;0.10;0.10;;;15.80;99.90;;;;;;5133621;28;20064;-74
2023/05/19 08:25:30;;;;;;;0.10;0.05;;;16.20;99.90;;;;;;5114879;28;20088;-74
2023/05/19 08:27:55;;;;;;;0.50;0.50;;;16.50;99.90;;;;;;5133071;28;20079;-75
2023/05/19 08:30:22;;;;;;;1.90;0.95;;;16.20;99.90;;;;;;5133273;27;20026;-69
2023/05/19 08:32:47;;;;;;;1.35;0.93;;;16.50;99.90;;;;;;5136727;27;20102;-69
2023/05/19 08:35:13;;;;;;;1.23;1.00;;;16.70;99.90;;;;;;5137287;27;20110;-69
2023/05/19 08:37:39;;;;;;;0.10;0.10;;;16.80;99.90;;;;;;5137382;27;20031;-68
2023/05/19 08:40:07;;;;;;;0.00;0.00;;;16.50;99.90;;;;;;5137142;27;20482;-71
2023/05/19 08:42:33;;;;;;;1.20;0.43;;;16.70;99.90;;;;;;5136977;27;20039;-69
2023/05/19 08:45:01;;;;;;;1.70;0.90;;;16.70;99.90;;;;;;5136978;27;20024;-69
2023/05/19 08:47:28;;;;;;;7.45;1.65;;;16.80;99.90;;;;;;5136819;27;20114;-69
2023/05/19 08:50:02;;;;;;;1.20;0.90;;;16.60;99.90;;;;;;5136849;27;20019;-72
2023/05/19 08:52:41;;;;;;;0.30;0.30;;;16.80;99.90;;;;;;5136956;27;20027;-74
2023/05/19 08:55:34;;;;;;;0.00;0.00;;;17.20;99.90;;;;;;5136579;27;20034;-75
2023/05/19 08:58:02;;;;;;;2.83;0.52;;;17.70;99.90;;;;;;5109357;27;20027;-74
2023/05/19 09:00:29;;;;;;;0.00;0.00;;;17.70;99.90;;;;;;5136893;27;20033;-74
2023/05/19 09:02:55;;;;;;;0.00;0.00;;;17.90;99.90;;;;;;5136685;27;20019;-73
2023/05/19 09:05:22;;;;;;;0.00;0.00;;;17.80;99.90;;;;;;5136829;27;20045;-75
2023/05/19 09:07:48;;;;;;;0.10;0.10;;;18.00;99.80;;;;;;5136558;27;20031;-75
2023/05/19 09:10:15;;;;;;;0.00;0.00;;;17.90;99.90;;;;;;5136279;27;20056;-75
2023/05/19 09:12:46;;;;;;;0.47;0.47;;;18.30;99.80;;;;;;5136672;27;20532;-74
2023/05/19 09:15:17;;;;;;;0.00;0.00;;;18.20;99.50;;;;;;5122057;27;20037;-74
2023/05/19 09:17:47;;;;;;;0.13;0.13;;;18.50;99.40;;;;;;5136341;27;20046;-71
2023/05/19 09:20:15;;;;;;;0.00;0.00;;;18.80;98.70;;;;;;5136454;27;20068;-75
2023/05/19 09:22:44;;;;;;;0.03;0.03;;;18.60;98.50;;;;;;5117830;27;20421;-75
2023/05/19 09:25:22;;;;;;;1.90;1.25;;;18.90;98.20;;;;;;5135959;27;20058;-75
2023/05/19 09:27:49;;;;;;;4.18;0.20;;;19.00;97.00;;;;;;5136427;27;20035;-75
2023/05/19 09:30:18;;;;;;;0.98;0.47;;;18.70;98.10;;;;;;5136198;27;20031;-74
2023/05/19 09:32:44;;;;;;;7.53;1.60;;;19.30;97.50;;;;;;5136522;27;20035;-75
2023/05/19 09:35:11;;;;;;;0.00;0.00;;;18.90;96.90;;;;;;5118059;27;20106;-75
2023/05/19 09:37:41;;;;;;;0.70;0.30;;;18.80;97.90;;;;;;5136443;27;20545;-75
2023/05/19 09:40:08;;;;;;;0.77;0.52;;;19.30;97.60;;;;;;5135738;27;20573;-75
2023/05/19 09:42:38;;;;;;;12.52;0.47;;;19.20;97.40;;;;;;5135851;27;20039;-71
2023/05/19 09:45:04;;;;;;;0.28;0.28;;;19.50;96.70;;;;;;5137338;27;20098;-74
2023/05/19 09:47:40;;;;;;;0.30;0.30;;;19.60;96.50;;;;;;5136922;27;20125;-73
2023/05/19 09:50:08;;;;;;;1.67;0.88;;;20.20;96.20;;;;;;5136990;27;20396;-75
2023/05/19 09:52:36;;;;;;;2.38;1.00;;;20.80;94.40;;;;;;5136952;27;20019;-74
2023/05/19 09:55:04;;;;;;;5.18;0.93;;;20.90;92.90;;;;;;5118438;27;20503;-74
2023/05/19 09:57:35;;;;;;;0.40;0.32;;;20.20;94.10;;;;;;5117216;27;20502;-69
2023/05/19 10:00:17;;;;;;;0.22;0.22;;;20.00;94.50;;;;;;5135874;27;20023;-69
2023/05/19 10:02:45;;;;;;;3.78;0.55;;;20.10;94.00;;;;;;5135764;27;20114;-69
2023/05/19 10:05:16;;;;;;;0.20;0.20;;;20.30;92.40;;;;;;5135252;27;20007;-68
2023/05/19 10:07:44;;;;;;;0.00;0.00;;;19.30;93.10;;;;;;5135131;27;20062;-71
2023/05/19 10:10:12;;;;;;;0.10;0.10;;;19.40;93.40;;;;;;5135683;27;20030;-73
2023/05/19 10:12:39;;;;;;;0.00;0.00;;;19.80;94.40;;;;;;5135196;27;20032;-71
2023/05/19 10:15:10;;;;;;;0.10;0.10;;;20.40;93.70;;;;;;5102785;27;20047;-72
2023/05/19 10:17:41;;;;;;;0.30;0.30;;;20.80;93.30;;;;;;5135248;27;20069;-71
2023/05/19 10:20:12;;;;;;;0.10;0.10;;;20.70;92.10;;;;;;5135301;27;20027;-69
2023/05/19 10:22:39;;;;;;;0.10;0.10;;;20.50;92.00;;;;;;5135163;27;20069;-70
2023/05/19 10:25:06;;;;;;;0.45;0.35;;;20.80;92.40;;;;;;5135167;27;20502;-75
2023/05/19 10:27:35;;;;;;;0.20;0.20;;;20.60;91.80;;;;;;5135055;27;20039;-70
2023/05/19 10:30:17;;;;;;;0.30;0.30;;;21.10;90.90;;;;;;5135052;27;20031;-72
2023/05/19 10:32:45;;;;;;;0.00;0.00;;;21.50;91.60;;;;;;5134971;27;20031;-72
2023/05/19 10:35:15;;;;;;;0.15;0.15;;;21.30;91.30;;;;;;5116462;27;20023;-73
2023/05/19 10:37:44;;;;;;;0.00;0.00;;;21.80;90.70;;;;;;5134597;27;20113;-69
2023/05/19 10:40:32;;;;;;;0.15;0.15;;;22.40;91.00;;;;;;5116603;27;20502;-71
2023/05/19 10:43:16;;;;;;;0.03;0.03;;;22.60;90.10;;;;;;5111427;27;20055;-70
2023/05/19 10:45:47;;;;;;;0.68;0.52;;;22.90;89.30;;;;;;5134805;27;20031;-70
2023/05/19 10:48:15;;;;;;;0.30;0.20;;;23.00;88.00;;;;;;5134277;27;20540;-71
2023/05/19 10:50:46;;;;;;;0.95;0.50;;;22.70;85.20;;;;;;5134691;27;20499;-69
2023/05/19 10:53:21;;;;;;;0.15;0.15;;;22.80;87.80;;;;;;5133863;27;20510;-70
2023/05/19 10:55:51;;;;;;;0.10;0.10;;;22.80;88.20;;;;;;5134041;27;20490;-70
2023/05/19 10:58:53;;;;;;;1.13;0.30;;;22.70;85.90;;;;;;5134369;27;20142;-71
2023/05/19 11:01:23;;;;;;;0.00;0.00;;;22.40;86.00;;;;;;5134352;27;20027;-69
2023/05/19 11:03:58;;;;;;;0.50;0.50;;;22.60;87.80;;;;;;5134354;27;20494;-69
2023/05/19 11:06:26;;;;;;;0.20;0.20;;;22.70;89.10;;;;;;5133849;27;20037;-70
2023/05/19 11:09:22;;;;;;;0.00;0.00;;;23.40;87.20;;;;;;5134329;27;20027;-70
2023/05/19 11:11:54;;;;;;;0.10;0.10;;;23.30;85.90;;;;;;5117082;27;20390;-69
2023/05/19 11:14:24;;;;;;;0.00;0.00;;;23.10;84.00;;;;;;5104401;28;20126;-71
2023/05/19 11:16:51;;;;;;;0.00;0.00;;;23.30;85.10;;;;;;5131555;27;20031;-71
2023/05/19 11:19:29;;;;;;;0.00;0.00;;;22.90;85.50;;;;;;5134064;27;20024;-69
2023/05/19 11:21:56;;;;;;;0.00;0.00;;;22.70;87.20;;;;;;5133876;27;20031;-69
2023/05/19 11:24:48;;;;;;;0.00;0.00;;;22.50;87.40;;;;;;5133985;27;20145;-69
2023/05/19 11:27:27;;;;;;;0.00;0.00;;;22.30;86.40;;;;;;5133748;27;20388;-69
2023/05/19 11:29:55;;;;;;;0.08;0.08;;;23.00;87.20;;;;;;5134066;27;20023;-71
2023/05/19 11:32:24;;;;;;;0.00;0.00;;;23.30;85.50;;;;;;5133971;27;20031;-69
2023/05/19 11:34:51;;;;;;;0.10;0.10;;;22.80;84.10;;;;;;5133753;27;20050;-69
2023/05/19 11:37:17;;;;;;;0.03;0.03;;;22.60;85.80;;;;;;5133727;27;20026;-69
2023/05/19 11:39:45;;;;;;;0.30;0.30;;;22.30;85.70;;;;;;5133828;27;20027;-69
2023/05/19 11:42:10;;;;;;;0.10;0.10;;;22.60;84.40;;;;;;5133422;27;20453;-70
2023/05/19 11:44:37;;;;;;;0.17;0.17;;;22.80;81.40;;;;;;5134185;27;20027;-74
2023/05/19 11:47:04;;;;;;;1.10;0.45;;;22.80;85.70;;;;;;5115141;27;20394;-69
2023/05/19 11:49:30;;;;;;;6.22;0.45;;;22.50;85.70;;;;;;5133520;27;20023;-75
2023/05/19 11:51:56;;;;;;;0.35;0.30;;;22.30;85.10;;;;;;5133828;27;20016;-73
2023/05/19 11:54:30;;;;;;;0.10;0.10;;;22.50;87.00;;;;;;5115159;28;20043;-74
2023/05/19 11:56:56;;;;;;;1.30;0.38;;;22.40;86.50;;;;;;5133704;28;20072;-73
2023/05/19 11:59:30;;;;;;;0.38;0.35;;;22.50;84.80;;;;;;5133436;28;20027;-74
2023/05/19 12:01:55;;;;;;;0.10;0.10;;;22.40;87.20;;;;;;5133878;28;20030;-75
2023/05/19 12:04:21;;;;;;;0.32;0.32;;;23.00;85.60;;;;;;5132921;28;20031;-74
2023/05/19 12:06:48;;;;;;;7.28;0.93;;;23.40;84.70;;;;;;5118673;27;20438;-75
2023/05/19 12:09:14;;;;;;;0.30;0.30;;;23.90;83.30;;;;;;5137596;27;20054;-74
2023/05/19 12:11:40;;;;;;;0.17;0.17;;;23.50;84.70;;;;;;5138194;27;20058;-73
2023/05/19 12:14:07;;;;;;;0.00;0.00;;;23.90;86.40;;;;;;5128277;27;20107;-75
2023/05/19 12:16:34;;;;;;;0.10;0.10;;;24.30;82.70;;;;;;5132748;27;20113;-72
2023/05/19 12:19:00;;;;;;;1.27;0.45;;;24.70;82.70;;;;;;5137397;27;20015;-74
2023/05/19 12:21:26;;;;;;;4.38;0.45;;;24.50;80.60;;;;;;5137734;27;20035;-75
2023/05/19 12:23:52;;;;;;;0.10;0.10;;;24.10;83.00;;;;;;5137475;27;20022;-74
2023/05/19 12:26:21;;;;;;;0.15;0.15;;;23.80;82.50;;;;;;5138036;27;20042;-69
2023/05/19 12:28:47;;;;;;;0.85;0.85;;;23.90;84.20;;;;;;5137369;27;20027;-70
2023/05/19 12:31:12;;;;;;;0.20;0.20;;;23.50;81.60;;;;;;5137582;27;20546;-69
2023/05/19 12:33:38;;;;;;;9.05;1.27;;;23.50;81.10;;;;;;5136971;27;20114;-69
2023/05/19 12:36:05;;;;;;;0.20;0.20;;;22.90;84.50;;;;;;5106750;28;20114;-70
2023/05/19 12:38:31;;;;;;;0.03;0.03;;;22.60;83.90;;;;;;5131155;27;20055;-69
2023/05/19 12:40:58;;;;;;;0.65;0.65;;;22.40;83.20;;;;;;5137279;27;20054;-69
2023/05/19 12:43:24;;;;;;;0.00;0.00;;;22.40;83.90;;;;;;5137202;27;20482;-70
2023/05/19 12:45:51;;;;;;;0.20;0.20;;;23.60;86.40;;;;;;5137021;27;20008;-69
2023/05/19 12:48:17;;;;;;;0.30;0.30;;;24.60;81.30;;;;;;5136810;27;20043;-69
2023/05/19 12:50:43;;;;;;;0.93;0.85;;;24.60;79.90;;;;;;5136878;27;20027;-69
2023/05/19 12:53:13;;;;;;;0.10;0.10;;;25.00;79.50;;;;;;5137096;27;20027;-71
2023/05/19 12:55:43;;;;;;;0.00;0.00;;;24.60;80.70;;;;;;5136629;27;20028;-69